PWSweather.com
Personal Weather Stations
Station Observations
ANTHEMNP
Anthem North Parkside, Anthem, AZ 85086

Anthem North ParksideAnthem, AZ 85086

Lat: 33.876464, Lon: -112.13861199999997

Elevation: 1930

Station Type: Davis Vantage Vue with Pro 2 console

http://www.azjerry.com/ANPW/wxindex.php

High Low Average
Temperature 104.6°F40.3°C 82.5°F28.1°C 91.7°F33.2°C
Dew Point 46.0°F7.8°C 23.0°F-5.0°C 32.5°F0.3°C
Winds 12.0 mph 19.3 kmh Calm Calm 5.0 mph SSE8.0 kmh SSE
Wind Gusts 22.0 mph35.4 kmh -- 10.0 mph16.1 kmh
Humidity 24% 7% 13%
Pressure 29.96 in1014.6 mb 29.81 in1009.5 mb -
Precipitation 0.00 in0.0 mm - -
Hour Temp Dew Point Humidity Winds Wind Gusts Pressure Precip Precip Rate Daily Precip Total
12:00 AM 85.1°F29.5°C 29.0°F-1.7°C 13% 5.6 mph N9.0 kmh N 11.0 mph17.7 kmh 29.90 in1012.5 mb 0.00 in0.0 mm 0.00 in0.0 mm 0.00 in0.0 mm
12:10 AM 85.0°F29.4°C 29.0°F-1.7°C 13% 6.4 mph NNW10.3 kmh NNW 11.0 mph17.7 kmh 29.90 in1012.5 mb 0.00 in0.0 mm 0.00 in0.0 mm 0.00 in0.0 mm
12:20 AM 85.3°F29.6°C 29.0°F-1.7°C 13% 7.1 mph NNE11.4 kmh NNE 17.0 mph27.4 kmh 29.90 in1012.5 mb 0.00 in0.0 mm 0.00 in0.0 mm 0.00 in0.0 mm
12:30 AM 85.9°F29.9°C 28.0°F-2.2°C 12% 7.4 mph NNE11.9 kmh NNE 13.0 mph20.9 kmh 29.91 in1012.9 mb 0.00 in0.0 mm 0.00 in0.0 mm 0.00 in0.0 mm
12:40 AM 86.0°F30.0°C 26.0°F-3.3°C 11% 8.0 mph NE12.9 kmh NE 17.0 mph27.4 kmh 29.90 in1012.5 mb 0.00 in0.0 mm 0.00 in0.0 mm 0.00 in0.0 mm
12:50 AM 85.6°F29.8°C 27.0°F-2.8°C 12% 8.9 mph NE14.3 kmh NE 17.0 mph27.4 kmh 29.91 in1012.9 mb 0.00 in0.0 mm 0.00 in0.0 mm 0.00 in0.0 mm
01:00 AM 85.6°F29.8°C 25.0°F-3.9°C 11% 9.4 mph NE15.1 kmh NE 18.0 mph29.0 kmh 29.91 in1012.9 mb 0.00 in0.0 mm 0.00 in0.0 mm 0.00 in0.0 mm
01:10 AM 85.4°F29.7°C 25.0°F-3.9°C 11% 9.5 mph NNW15.3 kmh NNW 16.0 mph25.7 kmh 29.90 in1012.5 mb 0.00 in0.0 mm 0.00 in0.0 mm 0.00 in0.0 mm
01:20 AM 85.3°F29.6°C 25.0°F-3.9°C 11% 10.5 mph NNE16.9 kmh NNE 20.0 mph32.2 kmh 29.90 in1012.5 mb 0.00 in0.0 mm 0.00 in0.0 mm 0.00 in0.0 mm
01:30 AM 85.1°F29.5°C 27.0°F-2.8°C 12% 9.7 mph NNW15.6 kmh NNW 17.0 mph27.4 kmh 29.90 in1012.5 mb 0.00 in0.0 mm 0.00 in0.0 mm 0.00 in0.0 mm
01:40 AM 84.9°F29.4°C 27.0°F-2.8°C 12% 10.3 mph NNE16.6 kmh NNE 18.0 mph29.0 kmh 29.90 in1012.5 mb 0.00 in0.0 mm 0.00 in0.0 mm 0.00 in0.0 mm
01:50 AM 85.6°F29.8°C 25.0°F-3.9°C 11% 10.3 mph N16.6 kmh N 21.0 mph33.8 kmh 29.90 in1012.5 mb 0.00 in0.0 mm 0.00 in0.0 mm 0.00 in0.0 mm
02:00 AM 85.4°F29.7°C 25.0°F-3.9°C 11% 8.9 mph N14.3 kmh N 16.0 mph25.7 kmh 29.90 in1012.5 mb 0.00 in0.0 mm 0.00 in0.0 mm 0.00 in0.0 mm
02:10 AM 85.4°F29.7°C 25.0°F-3.9°C 11% 9.2 mph N14.8 kmh N 18.0 mph29.0 kmh 29.90 in1012.5 mb 0.00 in0.0 mm 0.00 in0.0 mm 0.00 in0.0 mm
02:20 AM 84.9°F29.4°C 25.0°F-3.9°C 11% 9.8 mph N15.8 kmh N 17.0 mph27.4 kmh 29.90 in1012.5 mb 0.00 in0.0 mm 0.00 in0.0 mm 0.00 in0.0 mm
02:30 AM 84.7°F29.3°C 25.0°F-3.9°C 11% 9.3 mph NNE15.0 kmh NNE 17.0 mph27.4 kmh 29.90 in1012.5 mb 0.00 in0.0 mm 0.00 in0.0 mm 0.00 in0.0 mm
02:40 AM 84.0°F28.9°C 26.0°F-3.3°C 12% 9.2 mph N14.8 kmh N 15.0 mph24.1 kmh 29.90 in1012.5 mb 0.00 in0.0 mm 0.00 in0.0 mm 0.00 in0.0 mm
02:50 AM 84.2°F29.0°C 26.0°F-3.3°C 12% 9.0 mph NE14.5 kmh NE 16.0 mph25.7 kmh 29.90 in1012.5 mb 0.00 in0.0 mm 0.00 in0.0 mm 0.00 in0.0 mm
03:00 AM 84.4°F29.1°C 24.0°F-4.4°C 11% 10.5 mph NNW16.9 kmh NNW 17.0 mph27.4 kmh 29.89 in1012.2 mb 0.00 in0.0 mm 0.00 in0.0 mm 0.00 in0.0 mm
03:10 AM 83.8°F28.8°C 24.0°F-4.4°C 11% 10.2 mph N16.4 kmh N 17.0 mph27.4 kmh 29.90 in1012.5 mb 0.00 in0.0 mm 0.00 in0.0 mm 0.00 in0.0 mm
03:20 AM 83.6°F28.7°C 26.0°F-3.3°C 12% 10.4 mph NW16.7 kmh NW 19.0 mph30.6 kmh 29.89 in1012.2 mb 0.00 in0.0 mm 0.00 in0.0 mm 0.00 in0.0 mm
03:30 AM 83.7°F28.7°C 26.0°F-3.3°C 12% 9.9 mph NNW15.9 kmh NNW 19.0 mph30.6 kmh 29.90 in1012.5 mb 0.00 in0.0 mm 0.00 in0.0 mm 0.00 in0.0 mm
03:40 AM 84.3°F29.1°C 24.0°F-4.4°C 11% 11.3 mph NNE18.2 kmh NNE 19.0 mph30.6 kmh 29.90 in1012.5 mb 0.00 in0.0 mm 0.00 in0.0 mm 0.00 in0.0 mm
03:50 AM 84.3°F29.1°C 24.0°F-4.4°C 11% 11.2 mph NNW18.0 kmh NNW 20.0 mph32.2 kmh 29.90 in1012.5 mb 0.00 in0.0 mm 0.00 in0.0 mm 0.00 in0.0 mm
04:00 AM 83.8°F28.8°C 24.0°F-4.4°C 11% 9.5 mph NNW15.3 kmh NNW 20.0 mph32.2 kmh 29.90 in1012.5 mb 0.00 in0.0 mm 0.00 in0.0 mm 0.00 in0.0 mm
04:10 AM 83.5°F28.6°C 24.0°F-4.4°C 11% 10.9 mph ENE17.5 kmh ENE 20.0 mph32.2 kmh 29.90 in1012.5 mb 0.00 in0.0 mm 0.00 in0.0 mm 0.00 in0.0 mm
04:20 AM 83.3°F28.5°C 23.0°F-5.0°C 11% 10.6 mph NE17.1 kmh NE 19.0 mph30.6 kmh 29.90 in1012.5 mb 0.00 in0.0 mm 0.00 in0.0 mm 0.00 in0.0 mm
04:30 AM 83.1°F28.4°C 23.0°F-5.0°C 11% 10.3 mph NNE16.6 kmh NNE 21.0 mph33.8 kmh 29.90 in1012.5 mb 0.00 in0.0 mm 0.00 in0.0 mm 0.00 in0.0 mm
04:40 AM 83.0°F28.3°C 23.0°F-5.0°C 11% 11.5 mph NNE18.5 kmh NNE 19.0 mph30.6 kmh 29.90 in1012.5 mb 0.00 in0.0 mm 0.00 in0.0 mm 0.00 in0.0 mm
04:50 AM 82.9°F28.3°C 25.0°F-3.9°C 12% 11.7 mph NE18.8 kmh NE 19.0 mph30.6 kmh 29.91 in1012.9 mb 0.00 in0.0 mm 0.00 in0.0 mm 0.00 in0.0 mm
05:00 AM 82.9°F28.3°C 25.0°F-3.9°C 12% 10.8 mph N17.4 kmh N 19.0 mph30.6 kmh 29.90 in1012.5 mb 0.00 in0.0 mm 0.00 in0.0 mm 0.00 in0.0 mm
05:10 AM 82.9°F28.3°C 25.0°F-3.9°C 12% 11.6 mph NE18.7 kmh NE 18.0 mph29.0 kmh 29.91 in1012.9 mb 0.00 in0.0 mm 0.00 in0.0 mm 0.00 in0.0 mm
05:20 AM 82.6°F28.1°C 25.0°F-3.9°C 12% 10.7 mph W17.2 kmh W 20.0 mph32.2 kmh 29.91 in1012.9 mb 0.00 in0.0 mm 0.00 in0.0 mm 0.00 in0.0 mm
05:30 AM 83.0°F28.3°C 23.0°F-5.0°C 11% 10.7 mph N17.2 kmh N 22.0 mph35.4 kmh 29.91 in1012.9 mb 0.00 in0.0 mm 0.00 in0.0 mm 0.00 in0.0 mm
05:40 AM 83.2°F28.4°C 23.0°F-5.0°C 11% 12.0 mph N19.3 kmh N 21.0 mph33.8 kmh 29.91 in1012.9 mb 0.00 in0.0 mm 0.00 in0.0 mm 0.00 in0.0 mm
05:50 AM 83.4°F28.6°C 24.0°F-4.4°C 11% 11.9 mph NNE19.2 kmh NNE 21.0 mph33.8 kmh 29.91 in1012.9 mb 0.00 in0.0 mm 0.00 in0.0 mm 0.00 in0.0 mm
06:00 AM 82.8°F28.2°C 23.0°F-5.0°C 11% 11.1 mph NE17.9 kmh NE 18.0 mph29.0 kmh 29.92 in1013.2 mb 0.00 in0.0 mm 0.00 in0.0 mm 0.00 in0.0 mm
06:10 AM 82.6°F28.1°C 25.0°F-3.9°C 12% 10.8 mph NNW17.4 kmh NNW 19.0 mph30.6 kmh 29.92 in1013.2 mb 0.00 in0.0 mm 0.00 in0.0 mm 0.00 in0.0 mm
06:20 AM 82.5°F28.1°C 25.0°F-3.9°C 12% 11.2 mph N18.0 kmh N 22.0 mph35.4 kmh 29.92 in1013.2 mb 0.00 in0.0 mm 0.00 in0.0 mm 0.00 in0.0 mm
06:30 AM 82.5°F28.1°C 25.0°F-3.9°C 12% 10.9 mph NNE17.5 kmh NNE 18.0 mph29.0 kmh 29.92 in1013.2 mb 0.00 in0.0 mm 0.00 in0.0 mm 0.00 in0.0 mm
06:40 AM 82.5°F28.1°C 25.0°F-3.9°C 12% 11.7 mph NE18.8 kmh NE 21.0 mph33.8 kmh 29.92 in1013.2 mb 0.00 in0.0 mm 0.00 in0.0 mm 0.00 in0.0 mm
06:50 AM 82.7°F28.2°C 23.0°F-5.0°C 11% 11.4 mph NNE18.3 kmh NNE 21.0 mph33.8 kmh 29.93 in1013.5 mb 0.00 in0.0 mm 0.00 in0.0 mm 0.00 in0.0 mm
07:00 AM 82.8°F28.2°C 23.0°F-5.0°C 11% 11.0 mph N17.7 kmh N 20.0 mph32.2 kmh 29.93 in1013.5 mb 0.00 in0.0 mm 0.00 in0.0 mm 0.00 in0.0 mm
07:10 AM 83.6°F28.7°C 24.0°F-4.4°C 11% 11.5 mph NNE18.5 kmh NNE 21.0 mph33.8 kmh 29.93 in1013.5 mb 0.00 in0.0 mm 0.00 in0.0 mm 0.00 in0.0 mm
07:20 AM 83.2°F28.4°C 25.0°F-3.9°C 12% 10.7 mph NE17.2 kmh NE 19.0 mph30.6 kmh 29.93 in1013.5 mb 0.00 in0.0 mm 0.00 in0.0 mm 0.00 in0.0 mm
07:30 AM 83.4°F28.6°C 24.0°F-4.4°C 11% 11.1 mph N17.9 kmh N 20.0 mph32.2 kmh 29.93 in1013.5 mb 0.00 in0.0 mm 0.00 in0.0 mm 0.00 in0.0 mm
07:40 AM 83.5°F28.6°C 24.0°F-4.4°C 11% 10.0 mph NE16.1 kmh NE 19.0 mph30.6 kmh 29.93 in1013.5 mb 0.00 in0.0 mm 0.00 in0.0 mm 0.00 in0.0 mm
07:50 AM 84.3°F29.1°C 24.0°F-4.4°C 11% 10.5 mph NE16.9 kmh NE 20.0 mph32.2 kmh 29.93 in1013.5 mb 0.00 in0.0 mm 0.00 in0.0 mm 0.00 in0.0 mm
08:00 AM 85.7°F29.8°C 23.0°F-5.0°C 10% 10.9 mph N17.5 kmh N 19.0 mph30.6 kmh 29.94 in1013.9 mb 0.00 in0.0 mm 0.00 in0.0 mm 0.00 in0.0 mm
08:10 AM 86.7°F30.4°C 24.0°F-4.4°C 10% 10.9 mph NE17.5 kmh NE 19.0 mph30.6 kmh 29.94 in1013.9 mb 0.00 in0.0 mm 0.00 in0.0 mm 0.00 in0.0 mm
08:20 AM 87.1°F30.6°C 24.0°F-4.4°C 10% 10.8 mph NE17.4 kmh NE 21.0 mph33.8 kmh 29.94 in1013.9 mb 0.00 in0.0 mm 0.00 in0.0 mm 0.00 in0.0 mm
08:30 AM 87.4°F30.8°C 24.0°F-4.4°C 10% 10.1 mph N16.3 kmh N 19.0 mph30.6 kmh 29.95 in1014.2 mb 0.00 in0.0 mm 0.00 in0.0 mm 0.00 in0.0 mm
08:40 AM 87.8°F31.0°C 25.0°F-3.9°C 10% 8.5 mph NNW13.7 kmh NNW 16.0 mph25.7 kmh 29.95 in1014.2 mb 0.00 in0.0 mm 0.00 in0.0 mm 0.00 in0.0 mm
08:50 AM 88.3°F31.3°C 25.0°F-3.9°C 10% 9.1 mph NNE14.6 kmh NNE 16.0 mph25.7 kmh 29.95 in1014.2 mb 0.00 in0.0 mm 0.00 in0.0 mm 0.00 in0.0 mm
09:00 AM 88.9°F31.6°C 23.0°F-5.0°C 9% 9.5 mph N15.3 kmh N 16.0 mph25.7 kmh 29.95 in1014.2 mb 0.00 in0.0 mm 0.00 in0.0 mm 0.00 in0.0 mm
09:10 AM 89.7°F32.1°C 26.0°F-3.3°C 10% 9.0 mph NNE14.5 kmh NNE 15.0 mph24.1 kmh 29.95 in1014.2 mb 0.00 in0.0 mm 0.00 in0.0 mm 0.00 in0.0 mm
09:20 AM 90.6°F32.6°C 27.0°F-2.8°C 10% 8.0 mph NE12.9 kmh NE 14.0 mph22.5 kmh 29.95 in1014.2 mb 0.00 in0.0 mm 0.00 in0.0 mm 0.00 in0.0 mm
09:30 AM 91.1°F32.8°C 25.0°F-3.9°C 9% 8.0 mph NNE12.9 kmh NNE 13.0 mph20.9 kmh 29.95 in1014.2 mb 0.00 in0.0 mm 0.00 in0.0 mm 0.00 in0.0 mm
09:40 AM 91.9°F33.3°C 25.0°F-3.9°C 9% 6.6 mph N10.6 kmh N 12.0 mph19.3 kmh 29.95 in1014.2 mb 0.00 in0.0 mm 0.00 in0.0 mm 0.00 in0.0 mm
09:50 AM 92.7°F33.7°C 26.0°F-3.3°C 9% 6.4 mph N10.3 kmh N 13.0 mph20.9 kmh 29.95 in1014.2 mb 0.00 in0.0 mm 0.00 in0.0 mm 0.00 in0.0 mm
10:00 AM 93.5°F34.2°C 27.0°F-2.8°C 9% 4.8 mph NNE7.7 kmh NNE 10.0 mph16.1 kmh 29.95 in1014.2 mb 0.00 in0.0 mm 0.00 in0.0 mm 0.00 in0.0 mm
10:10 AM 94.2°F34.6°C 27.0°F-2.8°C 9% 4.6 mph NNW7.4 kmh NNW 9.0 mph14.5 kmh 29.96 in1014.6 mb 0.00 in0.0 mm 0.00 in0.0 mm 0.00 in0.0 mm
10:20 AM 95.3°F35.2°C 28.0°F-2.2°C 9% 2.1 mph SSE3.4 kmh SSE 5.0 mph8.0 kmh 29.95 in1014.2 mb 0.00 in0.0 mm 0.00 in0.0 mm 0.00 in0.0 mm
10:30 AM 97.0°F36.1°C 26.0°F-3.3°C 8% 1.7 mph S2.7 kmh S 5.0 mph8.0 kmh 29.95 in1014.2 mb 0.00 in0.0 mm 0.00 in0.0 mm 0.00 in0.0 mm
10:40 AM 97.3°F36.3°C 27.0°F-2.8°C 8% 1.7 mph SW2.7 kmh SW 5.0 mph8.0 kmh 29.95 in1014.2 mb 0.00 in0.0 mm 0.00 in0.0 mm 0.00 in0.0 mm
10:50 AM 97.2°F36.2°C 27.0°F-2.8°C 8% 0.7 mph NNW1.1 kmh NNW 3.0 mph4.8 kmh 29.95 in1014.2 mb 0.00 in0.0 mm 0.00 in0.0 mm 0.00 in0.0 mm
11:00 AM 97.3°F36.3°C 27.0°F-2.8°C 8% 1.6 mph SW2.6 kmh SW 4.0 mph6.4 kmh 29.95 in1014.2 mb 0.00 in0.0 mm 0.00 in0.0 mm 0.00 in0.0 mm
11:10 AM 98.2°F36.8°C 27.0°F-2.8°C 8% 0.6 mph SSW1.0 kmh SSW 2.0 mph3.2 kmh 29.95 in1014.2 mb 0.00 in0.0 mm 0.00 in0.0 mm 0.00 in0.0 mm
11:20 AM 98.6°F37.0°C 24.0°F-4.4°C 7% 1.3 mph SE2.1 kmh SE 4.0 mph6.4 kmh 29.95 in1014.2 mb 0.00 in0.0 mm 0.00 in0.0 mm 0.00 in0.0 mm
11:30 AM 99.9°F37.7°C 29.0°F-1.7°C 8% 0.9 mph SW1.4 kmh SW 3.0 mph4.8 kmh 29.95 in1014.2 mb 0.00 in0.0 mm 0.00 in0.0 mm 0.00 in0.0 mm
11:40 AM 100.1°F37.8°C 26.0°F-3.3°C 7% 1.5 mph SW2.4 kmh SW 5.0 mph8.0 kmh 29.94 in1013.9 mb 0.00 in0.0 mm 0.00 in0.0 mm 0.00 in0.0 mm
11:50 AM 100.3°F37.9°C 29.0°F-1.7°C 8% 3.0 mph S4.8 kmh S 7.0 mph11.3 kmh 29.94 in1013.9 mb 0.00 in0.0 mm 0.00 in0.0 mm 0.00 in0.0 mm
12:00 PM 100.4°F38.0°C 26.0°F-3.3°C 7% 2.1 mph SW3.4 kmh SW 8.0 mph12.9 kmh 29.93 in1013.5 mb 0.00 in0.0 mm 0.00 in0.0 mm 0.00 in0.0 mm
12:10 PM 101.2°F38.4°C 26.0°F-3.3°C 7% 2.1 mph WNW3.4 kmh WNW 5.0 mph8.0 kmh 29.93 in1013.5 mb 0.00 in0.0 mm 0.00 in0.0 mm 0.00 in0.0 mm
12:20 PM 101.6°F38.7°C 27.0°F-2.8°C 7% 1.5 mph S2.4 kmh S 6.0 mph9.7 kmh 29.92 in1013.2 mb 0.00 in0.0 mm 0.00 in0.0 mm 0.00 in0.0 mm
12:30 PM 101.2°F38.4°C 26.0°F-3.3°C 7% 3.6 mph NNE5.8 kmh NNE 8.0 mph12.9 kmh 29.92 in1013.2 mb 0.00 in0.0 mm 0.00 in0.0 mm 0.00 in0.0 mm
12:40 PM 101.8°F38.8°C 27.0°F-2.8°C 7% 3.1 mph SW5.0 kmh SW 7.0 mph11.3 kmh 29.91 in1012.9 mb 0.00 in0.0 mm 0.00 in0.0 mm 0.00 in0.0 mm
12:50 PM 101.6°F38.7°C 27.0°F-2.8°C 7% 1.9 mph NW3.1 kmh NW 6.0 mph9.7 kmh 29.91 in1012.9 mb 0.00 in0.0 mm 0.00 in0.0 mm 0.00 in0.0 mm
01:00 PM 102.1°F38.9°C 27.0°F-2.8°C 7% 1.6 mph WNW2.6 kmh WNW 6.0 mph9.7 kmh 29.90 in1012.5 mb 0.00 in0.0 mm 0.00 in0.0 mm 0.00 in0.0 mm
01:10 PM 102.3°F39.1°C 27.0°F-2.8°C 7% 2.1 mph SSW3.4 kmh SSW 6.0 mph9.7 kmh 29.90 in1012.5 mb 0.00 in0.0 mm 0.00 in0.0 mm 0.00 in0.0 mm
01:20 PM 102.1°F38.9°C 30.0°F-1.1°C 8% 2.0 mph N3.2 kmh N 6.0 mph9.7 kmh 29.89 in1012.2 mb 0.00 in0.0 mm 0.00 in0.0 mm 0.00 in0.0 mm
01:30 PM 103.2°F39.6°C 31.0°F-0.6°C 8% 1.5 mph SE2.4 kmh SE 5.0 mph8.0 kmh 29.89 in1012.2 mb 0.00 in0.0 mm 0.00 in0.0 mm 0.00 in0.0 mm
01:40 PM 102.4°F39.1°C 33.0°F0.6°C 9% 2.7 mph S4.3 kmh S 8.0 mph12.9 kmh 29.89 in1012.2 mb 0.00 in0.0 mm 0.00 in0.0 mm 0.00 in0.0 mm
01:50 PM 103.0°F39.4°C 31.0°F-0.6°C 8% 1.3 mph S2.1 kmh S 3.0 mph4.8 kmh 29.88 in1011.9 mb 0.00 in0.0 mm 0.00 in0.0 mm 0.00 in0.0 mm
02:00 PM 103.8°F39.9°C 32.0°F0.0°C 8% 1.9 mph SE3.1 kmh SE 5.0 mph8.0 kmh 29.88 in1011.9 mb 0.00 in0.0 mm 0.00 in0.0 mm 0.00 in0.0 mm
02:10 PM 103.7°F39.8°C 32.0°F0.0°C 8% 1.7 mph SSW2.7 kmh SSW 7.0 mph11.3 kmh 29.87 in1011.5 mb 0.00 in0.0 mm 0.00 in0.0 mm 0.00 in0.0 mm
02:20 PM 103.8°F39.9°C 35.0°F1.7°C 9% 3.1 mph SSE5.0 kmh SSE 9.0 mph14.5 kmh 29.87 in1011.5 mb 0.00 in0.0 mm 0.00 in0.0 mm 0.00 in0.0 mm
02:30 PM 103.6°F39.8°C 34.0°F1.1°C 9% 2.9 mph SE4.7 kmh SE 8.0 mph12.9 kmh 29.86 in1011.2 mb 0.00 in0.0 mm 0.00 in0.0 mm 0.00 in0.0 mm
02:40 PM 102.9°F39.4°C 39.0°F3.9°C 11% 1.6 mph NNE2.6 kmh NNE 5.0 mph8.0 kmh 29.86 in1011.2 mb 0.00 in0.0 mm 0.00 in0.0 mm 0.00 in0.0 mm
02:50 PM 104.6°F40.3°C 38.0°F3.3°C 10% 1.8 mph SE2.9 kmh SE 6.0 mph9.7 kmh 29.85 in1010.8 mb 0.00 in0.0 mm 0.00 in0.0 mm 0.00 in0.0 mm
03:00 PM 104.6°F40.3°C 38.0°F3.3°C 10% 2.3 mph SSE3.7 kmh SSE 7.0 mph11.3 kmh 29.85 in1010.8 mb 0.00 in0.0 mm 0.00 in0.0 mm 0.00 in0.0 mm
03:10 PM 103.3°F39.6°C 39.0°F3.9°C 11% 2.0 mph NNE3.2 kmh NNE 7.0 mph11.3 kmh 29.84 in1010.5 mb 0.00 in0.0 mm 0.00 in0.0 mm 0.00 in0.0 mm
03:20 PM 102.8°F39.3°C 36.0°F2.2°C 10% 1.3 mph ENE2.1 kmh ENE 3.0 mph4.8 kmh 29.84 in1010.5 mb 0.00 in0.0 mm 0.00 in0.0 mm 0.00 in0.0 mm
03:30 PM 103.4°F39.7°C 37.0°F2.8°C 10% 1.6 mph SW2.6 kmh SW 7.0 mph11.3 kmh 29.84 in1010.5 mb 0.00 in0.0 mm 0.00 in0.0 mm 0.00 in0.0 mm
03:40 PM 102.9°F39.4°C 37.0°F2.8°C 10% 1.8 mph NW2.9 kmh NW 5.0 mph8.0 kmh 29.83 in1010.2 mb 0.00 in0.0 mm 0.00 in0.0 mm 0.00 in0.0 mm
03:50 PM 102.9°F39.4°C 37.0°F2.8°C 10% 1.7 mph ENE2.7 kmh ENE 4.0 mph6.4 kmh 29.83 in1010.2 mb 0.00 in0.0 mm 0.00 in0.0 mm 0.00 in0.0 mm
04:00 PM 101.8°F38.8°C 40.0°F4.4°C 12% 2.1 mph N3.4 kmh N 5.0 mph8.0 kmh 29.82 in1009.8 mb 0.00 in0.0 mm 0.00 in0.0 mm 0.00 in0.0 mm
04:10 PM 100.8°F38.2°C 42.0°F5.6°C 13% 1.5 mph NE2.4 kmh NE 4.0 mph6.4 kmh 29.82 in1009.8 mb 0.00 in0.0 mm 0.00 in0.0 mm 0.00 in0.0 mm
04:20 PM 100.8°F38.2°C 42.0°F5.6°C 13% 0.1 mph SW0.2 kmh SW 1.0 mph1.6 kmh 29.82 in1009.8 mb 0.00 in0.0 mm 0.00 in0.0 mm 0.00 in0.0 mm
04:30 PM 100.8°F38.2°C 42.0°F5.6°C 13% 1.3 mph WSW2.1 kmh WSW 4.0 mph6.4 kmh 29.82 in1009.8 mb 0.00 in0.0 mm 0.00 in0.0 mm 0.00 in0.0 mm
04:40 PM 100.7°F38.2°C 43.0°F6.1°C 14% 0.8 mph WNW1.3 kmh WNW 5.0 mph8.0 kmh 29.82 in1009.8 mb 0.00 in0.0 mm 0.00 in0.0 mm 0.00 in0.0 mm
04:50 PM 100.1°F37.8°C 43.0°F6.1°C 14% 1.1 mph SSE1.8 kmh SSE 3.0 mph4.8 kmh 29.82 in1009.8 mb 0.00 in0.0 mm 0.00 in0.0 mm 0.00 in0.0 mm
05:00 PM 99.8°F37.7°C 43.0°F6.1°C 14% 1.0 mph WNW1.6 kmh WNW 3.0 mph4.8 kmh 29.81 in1009.5 mb 0.00 in0.0 mm 0.00 in0.0 mm 0.00 in0.0 mm
05:10 PM 100.0°F37.8°C 43.0°F6.1°C 14% 1.4 mph SW2.3 kmh SW 5.0 mph8.0 kmh 29.81 in1009.5 mb 0.00 in0.0 mm 0.00 in0.0 mm 0.00 in0.0 mm
05:20 PM 100.2°F37.9°C 41.0°F5.0°C 13% 2.6 mph SSW4.2 kmh SSW 6.0 mph9.7 kmh 29.82 in1009.8 mb 0.00 in0.0 mm 0.00 in0.0 mm 0.00 in0.0 mm
05:30 PM 100.0°F37.8°C 43.0°F6.1°C 14% 1.1 mph NW1.8 kmh NW 4.0 mph6.4 kmh 29.82 in1009.8 mb 0.00 in0.0 mm 0.00 in0.0 mm 0.00 in0.0 mm
05:40 PM 99.6°F37.6°C 42.0°F5.6°C 14% 1.2 mph SSW1.9 kmh SSW 5.0 mph8.0 kmh 29.82 in1009.8 mb 0.00 in0.0 mm 0.00 in0.0 mm 0.00 in0.0 mm
05:50 PM 99.5°F37.5°C 42.0°F5.6°C 14% 0.8 mph WSW1.3 kmh WSW 4.0 mph6.4 kmh 29.82 in1009.8 mb 0.00 in0.0 mm 0.00 in0.0 mm 0.00 in0.0 mm
06:00 PM 99.2°F37.3°C 44.0°F6.7°C 15% 0.5 mph SW0.8 kmh SW 2.0 mph3.2 kmh 29.82 in1009.8 mb 0.00 in0.0 mm 0.00 in0.0 mm 0.00 in0.0 mm
06:10 PM 98.7°F37.1°C 44.0°F6.7°C 15% 1.1 mph S1.8 kmh S 3.0 mph4.8 kmh 29.82 in1009.8 mb 0.00 in0.0 mm 0.00 in0.0 mm 0.00 in0.0 mm
06:20 PM 98.2°F36.8°C 45.0°F7.2°C 16% Calm Calm 1.0 mph1.6 kmh 29.82 in1009.8 mb 0.00 in0.0 mm 0.00 in0.0 mm 0.00 in0.0 mm
06:30 PM 97.8°F36.6°C 44.0°F6.7°C 16% 0.1 mph WNW0.2 kmh WNW 2.0 mph3.2 kmh 29.82 in1009.8 mb 0.00 in0.0 mm 0.00 in0.0 mm 0.00 in0.0 mm
06:40 PM 97.1°F36.2°C 46.0°F7.8°C 17% Calm Calm 1.0 mph1.6 kmh 29.82 in1009.8 mb 0.00 in0.0 mm 0.00 in0.0 mm 0.00 in0.0 mm
06:50 PM 96.8°F36.0°C 45.0°F7.2°C 17% 0.2 mph SSW0.3 kmh SSW 2.0 mph3.2 kmh 29.82 in1009.8 mb 0.00 in0.0 mm 0.00 in0.0 mm 0.00 in0.0 mm
07:00 PM 95.8°F35.4°C 44.0°F6.7°C 17% Calm Calm -- 29.82 in1009.8 mb 0.00 in0.0 mm 0.00 in0.0 mm 0.00 in0.0 mm
07:10 PM 94.4°F34.7°C 45.0°F7.2°C 18% Calm Calm -- 29.82 in1009.8 mb 0.00 in0.0 mm 0.00 in0.0 mm 0.00 in0.0 mm
07:20 PM 93.2°F34.0°C 45.0°F7.2°C 19% Calm Calm -- 29.82 in1009.8 mb 0.00 in0.0 mm 0.00 in0.0 mm 0.00 in0.0 mm
07:30 PM 92.2°F33.4°C 44.0°F6.7°C 19% Calm Calm -- 29.82 in1009.8 mb 0.00 in0.0 mm 0.00 in0.0 mm 0.00 in0.0 mm
07:40 PM 92.4°F33.6°C 46.0°F7.8°C 20% Calm Calm -- 29.82 in1009.8 mb 0.00 in0.0 mm 0.00 in0.0 mm 0.00 in0.0 mm
07:50 PM 91.7°F33.2°C 45.0°F7.2°C 20% Calm Calm -- 29.83 in1010.2 mb 0.00 in0.0 mm 0.00 in0.0 mm 0.00 in0.0 mm
08:00 PM 91.4°F33.0°C 45.0°F7.2°C 20% 0.1 mph WNW0.2 kmh WNW 1.0 mph1.6 kmh 29.83 in1010.2 mb 0.00 in0.0 mm 0.00 in0.0 mm 0.00 in0.0 mm
08:10 PM 91.3°F32.9°C 45.0°F7.2°C 20% Calm Calm 1.0 mph1.6 kmh 29.83 in1010.2 mb 0.00 in0.0 mm 0.00 in0.0 mm 0.00 in0.0 mm
08:20 PM 90.7°F32.6°C 44.0°F6.7°C 20% Calm Calm 1.0 mph1.6 kmh 29.83 in1010.2 mb 0.00 in0.0 mm 0.00 in0.0 mm 0.00 in0.0 mm
08:30 PM 89.8°F32.1°C 45.0°F7.2°C 21% Calm Calm 1.0 mph1.6 kmh 29.84 in1010.5 mb 0.00 in0.0 mm 0.00 in0.0 mm 0.00 in0.0 mm
08:40 PM 90.4°F32.4°C 44.0°F6.7°C 20% 0.3 mph N0.5 kmh N 2.0 mph3.2 kmh 29.84 in1010.5 mb 0.00 in0.0 mm 0.00 in0.0 mm 0.00 in0.0 mm
08:50 PM 90.7°F32.6°C 44.0°F6.7°C 20% 0.8 mph N1.3 kmh N 3.0 mph4.8 kmh 29.84 in1010.5 mb 0.00 in0.0 mm 0.00 in0.0 mm 0.00 in0.0 mm
09:00 PM 90.5°F32.5°C 44.0°F6.7°C 20% 0.1 mph N0.2 kmh N 1.0 mph1.6 kmh 29.85 in1010.8 mb 0.00 in0.0 mm 0.00 in0.0 mm 0.00 in0.0 mm
09:10 PM 89.4°F31.9°C 45.0°F7.2°C 21% 0.1 mph N0.2 kmh N 1.0 mph1.6 kmh 29.85 in1010.8 mb 0.00 in0.0 mm 0.00 in0.0 mm 0.00 in0.0 mm
09:20 PM 89.0°F31.7°C 44.0°F6.7°C 21% Calm Calm 1.0 mph1.6 kmh 29.85 in1010.8 mb 0.00 in0.0 mm 0.00 in0.0 mm 0.00 in0.0 mm
09:30 PM 88.7°F31.5°C 44.0°F6.7°C 21% Calm Calm 1.0 mph1.6 kmh 29.85 in1010.8 mb 0.00 in0.0 mm 0.00 in0.0 mm 0.00 in0.0 mm
09:40 PM 88.3°F31.3°C 45.0°F7.2°C 22% Calm Calm 1.0 mph1.6 kmh 29.86 in1011.2 mb 0.00 in0.0 mm 0.00 in0.0 mm 0.00 in0.0 mm
09:50 PM 87.3°F30.7°C 45.0°F7.2°C 23% Calm Calm -- 29.86 in1011.2 mb 0.00 in0.0 mm 0.00 in0.0 mm 0.00 in0.0 mm
10:00 PM 87.2°F30.7°C 44.0°F6.7°C 22% Calm Calm 1.0 mph1.6 kmh 29.86 in1011.2 mb 0.00 in0.0 mm 0.00 in0.0 mm 0.00 in0.0 mm
10:10 PM 86.6°F30.3°C 43.0°F6.1°C 22% Calm Calm 1.0 mph1.6 kmh 29.86 in1011.2 mb 0.00 in0.0 mm 0.00 in0.0 mm 0.00 in0.0 mm
10:20 PM 85.4°F29.7°C 44.0°F6.7°C 23% 0.1 mph NNE0.2 kmh NNE 2.0 mph3.2 kmh 29.86 in1011.2 mb 0.00 in0.0 mm 0.00 in0.0 mm 0.00 in0.0 mm
10:30 PM 84.7°F29.3°C 43.0°F6.1°C 23% Calm Calm -- 29.86 in1011.2 mb 0.00 in0.0 mm 0.00 in0.0 mm 0.00 in0.0 mm
10:50 PM 84.5°F29.2°C 44.0°F6.7°C 24% 0.3 mph N0.5 kmh N 2.0 mph3.2 kmh 29.87 in1011.5 mb 0.00 in0.0 mm 0.00 in0.0 mm 0.00 in0.0 mm
11:00 PM 85.4°F29.7°C 44.0°F6.7°C 23% 1.5 mph NNE2.4 kmh NNE 4.0 mph6.4 kmh 29.86 in1011.2 mb 0.00 in0.0 mm 0.00 in0.0 mm 0.00 in0.0 mm
11:10 PM 86.0°F30.0°C 44.0°F6.7°C 23% 3.6 mph N5.8 kmh N 6.0 mph9.7 kmh 29.87 in1011.5 mb 0.00 in0.0 mm 0.00 in0.0 mm 0.00 in0.0 mm
11:20 PM 85.8°F29.9°C 44.0°F6.7°C 23% 3.3 mph NE5.3 kmh NE 7.0 mph11.3 kmh 29.87 in1011.5 mb 0.00 in0.0 mm 0.00 in0.0 mm 0.00 in0.0 mm
11:30 PM 86.4°F30.2°C 43.0°F6.1°C 22% 4.2 mph N6.8 kmh N 8.0 mph12.9 kmh 29.87 in1011.5 mb 0.00 in0.0 mm 0.00 in0.0 mm 0.00 in0.0 mm
11:40 PM 87.2°F30.7°C 43.0°F6.1°C 21% 4.1 mph NE6.6 kmh NE 7.0 mph11.3 kmh 29.87 in1011.5 mb 0.00 in0.0 mm 0.00 in0.0 mm 0.00 in0.0 mm
11:50 PM 86.7°F30.4°C 44.0°F6.7°C 22% 2.4 mph N3.9 kmh N 5.0 mph8.0 kmh 29.87 in1011.5 mb 0.00 in0.0 mm 0.00 in0.0 mm 0.00 in0.0 mm